sensor_id;sensor_type;location;lat;lon;timestamp;P1;durP1;ratioP1;P2;durP2;ratioP2
53871;SDS011;39787;53.174;5.798;2023-07-02T00:01:01;25.30;;;8.73;;
53871;SDS011;39787;53.174;5.798;2023-07-02T00:02:01;27.83;;;8.50;;
53871;SDS011;39787;53.174;5.798;2023-07-02T00:03:02;30.30;;;8.73;;
53871;SDS011;39787;53.174;5.798;2023-07-02T00:04:02;26.00;;;8.93;;
53871;SDS011;39787;53.174;5.798;2023-07-02T00:05:03;29.40;;;9.83;;
53871;SDS011;39787;53.174;5.798;2023-07-02T00:06:04;33.80;;;9.40;;
53871;SDS011;39787;53.174;5.798;2023-07-02T00:07:05;34.35;;;10.35;;
53871;SDS011;39787;53.174;5.798;2023-07-02T00:08:05;24.97;;;9.13;;
53871;SDS011;39787;53.174;5.798;2023-07-02T00:09:07;29.83;;;9.77;;
53871;SDS011;39787;53.174;5.798;2023-07-02T00:10:07;28.55;;;9.25;;
53871;SDS011;39787;53.174;5.798;2023-07-02T00:11:08;30.10;;;9.10;;
53871;SDS011;39787;53.174;5.798;2023-07-02T00:12:08;33.53;;;8.83;;
53871;SDS011;39787;53.174;5.798;2023-07-02T00:13:09;32.15;;;9.63;;
53871;SDS011;39787;53.174;5.798;2023-07-02T00:14:10;26.47;;;9.23;;
53871;SDS011;39787;53.174;5.798;2023-07-02T00:15:10;30.65;;;9.45;;
53871;SDS011;39787;53.174;5.798;2023-07-02T00:16:11;26.17;;;8.27;;
53871;SDS011;39787;53.174;5.798;2023-07-02T00:17:11;32.67;;;10.37;;
53871;SDS011;39787;53.174;5.798;2023-07-02T00:18:12;30.00;;;10.33;;
53871;SDS011;39787;53.174;5.798;2023-07-02T00:19:15;27.73;;;9.13;;
53871;SDS011;39787;53.174;5.798;2023-07-02T00:20:16;31.15;;;9.13;;
53871;SDS011;39787;53.174;5.798;2023-07-02T00:21:16;33.67;;;9.97;;
53871;SDS011;39787;53.174;5.798;2023-07-02T00:22:17;27.77;;;9.50;;
53871;SDS011;39787;53.174;5.798;2023-07-02T00:23:17;31.73;;;10.30;;
53871;SDS011;39787;53.174;5.798;2023-07-02T00:24:18;24.90;;;8.60;;
53871;SDS011;39787;53.174;5.798;2023-07-02T00:25:18;31.17;;;8.37;;
53871;SDS011;39787;53.174;5.798;2023-07-02T00:26:19;30.87;;;9.93;;
53871;SDS011;39787;53.174;5.798;2023-07-02T00:27:19;32.53;;;9.63;;
53871;SDS011;39787;53.174;5.798;2023-07-02T00:28:20;26.00;;;8.83;;
53871;SDS011;39787;53.174;5.798;2023-07-02T00:29:20;29.03;;;10.20;;
53871;SDS011;39787;53.174;5.798;2023-07-02T00:30:21;32.93;;;9.87;;
53871;SDS011;39787;53.174;5.798;2023-07-02T00:31:22;27.80;;;9.67;;
53871;SDS011;39787;53.174;5.798;2023-07-02T00:32:23;31.58;;;10.15;;
53871;SDS011;39787;53.174;5.798;2023-07-02T00:33:24;29.83;;;9.73;;
53871;SDS011;39787;53.174;5.798;2023-07-02T00:34:24;22.63;;;8.60;;
53871;SDS011;39787;53.174;5.798;2023-07-02T00:35:25;31.67;;;9.40;;
53871;SDS011;39787;53.174;5.798;2023-07-02T00:36:25;33.63;;;9.80;;
53871;SDS011;39787;53.174;5.798;2023-07-02T00:37:26;30.80;;;8.97;;
53871;SDS011;39787;53.174;5.798;2023-07-02T00:38:26;29.40;;;9.93;;
53871;SDS011;39787;53.174;5.798;2023-07-02T00:39:27;30.00;;;9.80;;
53871;SDS011;39787;53.174;5.798;2023-07-02T00:40:27;32.90;;;10.47;;
53871;SDS011;39787;53.174;5.798;2023-07-02T00:41:28;30.20;;;9.90;;
53871;SDS011;39787;53.174;5.798;2023-07-02T00:42:28;32.00;;;9.63;;
53871;SDS011;39787;53.174;5.798;2023-07-02T00:43:28;29.57;;;9.03;;
53871;SDS011;39787;53.174;5.798;2023-07-02T00:44:29;23.23;;;9.03;;
53871;SDS011;39787;53.174;5.798;2023-07-02T00:45:30;40.87;;;9.57;;
53871;SDS011;39787;53.174;5.798;2023-07-02T00:46:30;41.20;;;10.90;;
53871;SDS011;39787;53.174;5.798;2023-07-02T00:47:32;32.13;;;9.40;;
53871;SDS011;39787;53.174;5.798;2023-07-02T00:48:33;24.35;;;9.23;;
53871;SDS011;39787;53.174;5.798;2023-07-02T00:49:34;29.25;;;9.90;;
53871;SDS011;39787;53.174;5.798;2023-07-02T00:50:35;26.40;;;8.73;;
53871;SDS011;39787;53.174;5.798;2023-07-02T00:51:36;34.17;;;9.27;;
53871;SDS011;39787;53.174;5.798;2023-07-02T00:52:36;36.63;;;10.33;;
53871;SDS011;39787;53.174;5.798;2023-07-02T00:53:37;36.55;;;10.10;;
53871;SDS011;39787;53.174;5.798;2023-07-02T00:54:38;30.47;;;9.90;;
53871;SDS011;39787;53.174;5.798;2023-07-02T00:55:38;34.60;;;10.27;;
53871;SDS011;39787;53.174;5.798;2023-07-02T00:56:39;29.97;;;10.47;;
53871;SDS011;39787;53.174;5.798;2023-07-02T00:57:39;27.50;;;9.40;;
53871;SDS011;39787;53.174;5.798;2023-07-02T00:58:44;28.93;;;10.83;;
53871;SDS011;39787;53.174;5.798;2023-07-02T00:59:46;29.70;;;9.43;;
53871;SDS011;39787;53.174;5.798;2023-07-02T01:00:47;27.17;;;9.50;;
53871;SDS011;39787;53.174;5.798;2023-07-02T01:01:47;24.63;;;8.50;;
53871;SDS011;39787;53.174;5.798;2023-07-02T01:02:54;28.63;;;10.27;;
53871;SDS011;39787;53.174;5.798;2023-07-02T01:04:02;32.78;;;9.55;;
53871;SDS011;39787;53.174;5.798;2023-07-02T01:05:04;27.13;;;9.13;;
53871;SDS011;39787;53.174;5.798;2023-07-02T01:06:05;29.17;;;8.37;;
53871;SDS011;39787;53.174;5.798;2023-07-02T01:07:05;29.33;;;9.53;;
53871;SDS011;39787;53.174;5.798;2023-07-02T01:08:06;33.60;;;9.07;;
53871;SDS011;39787;53.174;5.798;2023-07-02T01:09:07;34.22;;;9.98;;
53871;SDS011;39787;53.174;5.798;2023-07-02T01:10:08;32.40;;;9.40;;
53871;SDS011;39787;53.174;5.798;2023-07-02T01:11:08;41.17;;;9.55;;
53871;SDS011;39787;53.174;5.798;2023-07-02T01:12:09;45.40;;;9.63;;
53871;SDS011;39787;53.174;5.798;2023-07-02T01:13:12;30.27;;;9.45;;
53871;SDS011;39787;53.174;5.798;2023-07-02T01:14:19;32.17;;;9.93;;
53871;SDS011;39787;53.174;5.798;2023-07-02T01:15:33;34.05;;;9.18;;
53871;SDS011;39787;53.174;5.798;2023-07-02T01:16:34;36.53;;;8.85;;
53871;SDS011;39787;53.174;5.798;2023-07-02T01:17:37;32.42;;;9.75;;
53871;SDS011;39787;53.174;5.798;2023-07-02T01:18:37;38.63;;;11.23;;
53871;SDS011;39787;53.174;5.798;2023-07-02T01:19:51;27.07;;;9.53;;
53871;SDS011;39787;53.174;5.798;2023-07-02T01:20:53;30.02;;;9.68;;
53871;SDS011;39787;53.174;5.798;2023-07-02T01:21:54;28.67;;;9.15;;
53871;SDS011;39787;53.174;5.798;2023-07-02T01:22:55;27.08;;;9.35;;
53871;SDS011;39787;53.174;5.798;2023-07-02T01:23:56;23.48;;;9.20;;
53871;SDS011;39787;53.174;5.798;2023-07-02T01:24:56;35.20;;;9.60;;
53871;SDS011;39787;53.174;5.798;2023-07-02T01:25:57;31.98;;;9.93;;
53871;SDS011;39787;53.174;5.798;2023-07-02T01:26:58;32.73;;;9.57;;
53871;SDS011;39787;53.174;5.798;2023-07-02T01:27:58;34.17;;;10.93;;
53871;SDS011;39787;53.174;5.798;2023-07-02T01:29:00;28.37;;;10.00;;
53871;SDS011;39787;53.174;5.798;2023-07-02T01:30:13;22.20;;;8.85;;
53871;SDS011;39787;53.174;5.798;2023-07-02T01:31:13;30.57;;;9.63;;
53871;SDS011;39787;53.174;5.798;2023-07-02T01:32:14;28.63;;;9.97;;
53871;SDS011;39787;53.174;5.798;2023-07-02T01:33:14;41.00;;;10.37;;
53871;SDS011;39787;53.174;5.798;2023-07-02T01:34:15;31.50;;;9.40;;
53871;SDS011;39787;53.174;5.798;2023-07-02T01:35:15;25.23;;;8.97;;
53871;SDS011;39787;53.174;5.798;2023-07-02T01:36:16;34.10;;;10.73;;
53871;SDS011;39787;53.174;5.798;2023-07-02T01:37:16;27.60;;;9.10;;
53871;SDS011;39787;53.174;5.798;2023-07-02T01:38:17;28.67;;;9.17;;
53871;SDS011;39787;53.174;5.798;2023-07-02T01:39:17;34.57;;;9.30;;
53871;SDS011;39787;53.174;5.798;2023-07-02T01:40:18;28.33;;;9.17;;
53871;SDS011;39787;53.174;5.798;2023-07-02T01:41:18;22.47;;;8.53;;
53871;SDS011;39787;53.174;5.798;2023-07-02T01:42:19;26.27;;;9.40;;
53871;SDS011;39787;53.174;5.798;2023-07-02T01:43:20;29.23;;;9.50;;
53871;SDS011;39787;53.174;5.798;2023-07-02T01:44:21;31.87;;;9.80;;
53871;SDS011;39787;53.174;5.798;2023-07-02T01:46:22;27.27;;;8.63;;
53871;SDS011;39787;53.174;5.798;2023-07-02T01:47:23;32.40;;;9.50;;
53871;SDS011;39787;53.174;5.798;2023-07-02T01:48:23;31.57;;;9.53;;
53871;SDS011;39787;53.174;5.798;2023-07-02T01:49:24;32.70;;;9.73;;
53871;SDS011;39787;53.174;5.798;2023-07-02T01:50:24;28.65;;;8.73;;
53871;SDS011;39787;53.174;5.798;2023-07-02T01:51:25;32.63;;;9.80;;
53871;SDS011;39787;53.174;5.798;2023-07-02T01:52:25;27.27;;;9.10;;
53871;SDS011;39787;53.174;5.798;2023-07-02T01:53:26;32.63;;;9.90;;
53871;SDS011;39787;53.174;5.798;2023-07-02T01:54:27;32.03;;;10.07;;
53871;SDS011;39787;53.174;5.798;2023-07-02T01:55:27;30.55;;;8.70;;
53871;SDS011;39787;53.174;5.798;2023-07-02T01:56:28;38.20;;;9.32;;
53871;SDS011;39787;53.174;5.798;2023-07-02T01:57:29;24.35;;;9.35;;
53871;SDS011;39787;53.174;5.798;2023-07-02T01:58:30;31.33;;;9.75;;
53871;SDS011;39787;53.174;5.798;2023-07-02T01:59:31;34.38;;;10.10;;
53871;SDS011;39787;53.174;5.798;2023-07-02T02:00:32;31.65;;;9.10;;
53871;SDS011;39787;53.174;5.798;2023-07-02T02:01:33;28.63;;;8.63;;
53871;SDS011;39787;53.174;5.798;2023-07-02T02:02:34;33.33;;;9.98;;
53871;SDS011;39787;53.174;5.798;2023-07-02T02:03:35;27.30;;;9.75;;
53871;SDS011;39787;53.174;5.798;2023-07-02T02:04:35;31.08;;;10.82;;
53871;SDS011;39787;53.174;5.798;2023-07-02T02:05:36;26.52;;;9.07;;
53871;SDS011;39787;53.174;5.798;2023-07-02T02:06:38;34.97;;;9.75;;
53871;SDS011;39787;53.174;5.798;2023-07-02T02:07:39;30.15;;;8.77;;
53871;SDS011;39787;53.174;5.798;2023-07-02T02:08:40;33.10;;;9.45;;
53871;SDS011;39787;53.174;5.798;2023-07-02T02:09:41;32.30;;;9.52;;
53871;SDS011;39787;53.174;5.798;2023-07-02T02:10:41;22.13;;;8.90;;
53871;SDS011;39787;53.174;5.798;2023-07-02T02:11:43;25.90;;;10.23;;
53871;SDS011;39787;53.174;5.798;2023-07-02T02:12:44;29.65;;;9.15;;
53871;SDS011;39787;53.174;5.798;2023-07-02T02:13:45;32.00;;;9.27;;
53871;SDS011;39787;53.174;5.798;2023-07-02T02:14:45;32.97;;;10.03;;
53871;SDS011;39787;53.174;5.798;2023-07-02T02:15:46;27.43;;;9.40;;
53871;SDS011;39787;53.174;5.798;2023-07-02T02:16:46;28.73;;;9.37;;
53871;SDS011;39787;53.174;5.798;2023-07-02T02:17:47;30.50;;;9.03;;
53871;SDS011;39787;53.174;5.798;2023-07-02T02:18:47;26.97;;;9.03;;
53871;SDS011;39787;53.174;5.798;2023-07-02T02:19:48;27.63;;;9.57;;
53871;SDS011;39787;53.174;5.798;2023-07-02T02:20:48;24.83;;;9.87;;
53871;SDS011;39787;53.174;5.798;2023-07-02T02:21:49;36.73;;;11.03;;
53871;SDS011;39787;53.174;5.798;2023-07-02T02:22:49;34.97;;;10.67;;
53871;SDS011;39787;53.174;5.798;2023-07-02T02:23:50;31.23;;;9.67;;
53871;SDS011;39787;53.174;5.798;2023-07-02T02:24:50;32.47;;;9.63;;
53871;SDS011;39787;53.174;5.798;2023-07-02T02:25:50;33.20;;;10.10;;
53871;SDS011;39787;53.174;5.798;2023-07-02T02:26:51;30.57;;;8.93;;
53871;SDS011;39787;53.174;5.798;2023-07-02T02:27:51;33.53;;;9.50;;
53871;SDS011;39787;53.174;5.798;2023-07-02T02:28:52;27.60;;;9.47;;
53871;SDS011;39787;53.174;5.798;2023-07-02T02:29:52;29.80;;;8.57;;
53871;SDS011;39787;53.174;5.798;2023-07-02T02:30:53;27.13;;;8.87;;
53871;SDS011;39787;53.174;5.798;2023-07-02T02:31:53;31.77;;;8.90;;
53871;SDS011;39787;53.174;5.798;2023-07-02T02:32:54;28.03;;;9.43;;
53871;SDS011;39787;53.174;5.798;2023-07-02T02:33:54;29.43;;;8.53;;
53871;SDS011;39787;53.174;5.798;2023-07-02T02:34:55;28.67;;;9.53;;
53871;SDS011;39787;53.174;5.798;2023-07-02T02:35:55;31.03;;;9.33;;
53871;SDS011;39787;53.174;5.798;2023-07-02T02:36:56;34.60;;;11.33;;
53871;SDS011;39787;53.174;5.798;2023-07-02T02:37:56;26.63;;;8.97;;
53871;SDS011;39787;53.174;5.798;2023-07-02T02:38:57;32.40;;;9.17;;
53871;SDS011;39787;53.174;5.798;2023-07-02T02:39:57;30.33;;;8.90;;
53871;SDS011;39787;53.174;5.798;2023-07-02T02:40:58;32.90;;;8.80;;
53871;SDS011;39787;53.174;5.798;2023-07-02T02:41:58;27.20;;;8.77;;
53871;SDS011;39787;53.174;5.798;2023-07-02T02:42:59;35.00;;;9.67;;
53871;SDS011;39787;53.174;5.798;2023-07-02T02:43:59;22.80;;;7.73;;
53871;SDS011;39787;53.174;5.798;2023-07-02T02:44:59;29.20;;;9.27;;
53871;SDS011;39787;53.174;5.798;2023-07-02T02:46:00;28.87;;;8.37;;
53871;SDS011;39787;53.174;5.798;2023-07-02T02:47:00;26.50;;;9.40;;
53871;SDS011;39787;53.174;5.798;2023-07-02T02:48:01;25.17;;;8.10;;
53871;SDS011;39787;53.174;5.798;2023-07-02T02:49:01;25.73;;;8.47;;
53871;SDS011;39787;53.174;5.798;2023-07-02T02:50:02;22.67;;;8.57;;
53871;SDS011;39787;53.174;5.798;2023-07-02T02:51:03;23.60;;;8.65;;
53871;SDS011;39787;53.174;5.798;2023-07-02T02:52:03;33.63;;;9.00;;
53871;SDS011;39787;53.174;5.798;2023-07-02T02:53:04;22.70;;;7.80;;
53871;SDS011;39787;53.174;5.798;2023-07-02T02:54:04;24.40;;;8.63;;
53871;SDS011;39787;53.174;5.798;2023-07-02T02:55:05;24.97;;;8.47;;
53871;SDS011;39787;53.174;5.798;2023-07-02T02:56:07;28.27;;;8.55;;
53871;SDS011;39787;53.174;5.798;2023-07-02T02:57:07;27.23;;;8.60;;
53871;SDS011;39787;53.174;5.798;2023-07-02T02:58:08;25.37;;;8.10;;
53871;SDS011;39787;53.174;5.798;2023-07-02T02:59:08;23.37;;;7.40;;
53871;SDS011;39787;53.174;5.798;2023-07-02T03:00:09;24.77;;;8.80;;
53871;SDS011;39787;53.174;5.798;2023-07-02T03:01:10;25.90;;;8.77;;
53871;SDS011;39787;53.174;5.798;2023-07-02T03:02:10;30.10;;;7.70;;
53871;SDS011;39787;53.174;5.798;2023-07-02T03:03:14;25.10;;;8.70;;
53871;SDS011;39787;53.174;5.798;2023-07-02T03:04:14;30.50;;;9.77;;
53871;SDS011;39787;53.174;5.798;2023-07-02T03:05:15;32.10;;;10.37;;
53871;SDS011;39787;53.174;5.798;2023-07-02T03:06:15;21.03;;;7.77;;
53871;SDS011;39787;53.174;5.798;2023-07-02T03:07:16;34.27;;;8.73;;
53871;SDS011;39787;53.174;5.798;2023-07-02T03:08:16;33.80;;;9.30;;
53871;SDS011;39787;53.174;5.798;2023-07-02T03:09:17;27.20;;;8.03;;
53871;SDS011;39787;53.174;5.798;2023-07-02T03:10:17;21.97;;;8.17;;
53871;SDS011;39787;53.174;5.798;2023-07-02T03:11:18;27.53;;;7.73;;
53871;SDS011;39787;53.174;5.798;2023-07-02T03:12:18;32.07;;;9.67;;
53871;SDS011;39787;53.174;5.798;2023-07-02T03:13:19;30.13;;;8.63;;
53871;SDS011;39787;53.174;5.798;2023-07-02T03:14:19;22.83;;;8.03;;
53871;SDS011;39787;53.174;5.798;2023-07-02T03:15:20;33.70;;;8.43;;
53871;SDS011;39787;53.174;5.798;2023-07-02T03:16:20;30.90;;;9.90;;
53871;SDS011;39787;53.174;5.798;2023-07-02T03:17:21;25.93;;;8.60;;
53871;SDS011;39787;53.174;5.798;2023-07-02T03:18:22;35.22;;;9.73;;
53871;SDS011;39787;53.174;5.798;2023-07-02T03:19:22;21.77;;;8.23;;
53871;SDS011;39787;53.174;5.798;2023-07-02T03:20:22;32.40;;;10.67;;
53871;SDS011;39787;53.174;5.798;2023-07-02T03:21:23;24.45;;;8.93;;
53871;SDS011;39787;53.174;5.798;2023-07-02T03:22:24;25.67;;;8.17;;
53871;SDS011;39787;53.174;5.798;2023-07-02T03:23:24;31.67;;;9.27;;
53871;SDS011;39787;53.174;5.798;2023-07-02T03:24:25;38.23;;;9.63;;
53871;SDS011;39787;53.174;5.798;2023-07-02T03:25:25;27.43;;;8.40;;
53871;SDS011;39787;53.174;5.798;2023-07-02T03:26:26;35.33;;;9.53;;
53871;SDS011;39787;53.174;5.798;2023-07-02T03:27:26;30.67;;;9.67;;
53871;SDS011;39787;53.174;5.798;2023-07-02T03:28:27;24.03;;;8.67;;
53871;SDS011;39787;53.174;5.798;2023-07-02T03:29:27;31.90;;;8.97;;
53871;SDS011;39787;53.174;5.798;2023-07-02T03:30:27;26.57;;;8.83;;
53871;SDS011;39787;53.174;5.798;2023-07-02T03:31:28;24.33;;;8.10;;
53871;SDS011;39787;53.174;5.798;2023-07-02T03:32:28;28.03;;;8.37;;
53871;SDS011;39787;53.174;5.798;2023-07-02T03:33:29;26.23;;;9.07;;
53871;SDS011;39787;53.174;5.798;2023-07-02T03:34:29;26.50;;;8.57;;
53871;SDS011;39787;53.174;5.798;2023-07-02T03:35:30;31.20;;;9.73;;
53871;SDS011;39787;53.174;5.798;2023-07-02T03:36:30;28.90;;;8.20;;
53871;SDS011;39787;53.174;5.798;2023-07-02T03:37:31;34.50;;;9.97;;
53871;SDS011;39787;53.174;5.798;2023-07-02T03:38:31;31.60;;;7.80;;
53871;SDS011;39787;53.174;5.798;2023-07-02T03:39:32;27.07;;;8.47;;
53871;SDS011;39787;53.174;5.798;2023-07-02T03:40:32;26.63;;;8.47;;
53871;SDS011;39787;53.174;5.798;2023-07-02T03:41:33;24.27;;;8.80;;
53871;SDS011;39787;53.174;5.798;2023-07-02T03:42:33;25.50;;;8.60;;
53871;SDS011;39787;53.174;5.798;2023-07-02T03:43:34;31.30;;;8.20;;
53871;SDS011;39787;53.174;5.798;2023-07-02T03:44:34;30.03;;;8.33;;
53871;SDS011;39787;53.174;5.798;2023-07-02T03:45:35;28.70;;;8.37;;
53871;SDS011;39787;53.174;5.798;2023-07-02T03:46:35;29.33;;;7.53;;
53871;SDS011;39787;53.174;5.798;2023-07-02T03:47:36;25.57;;;7.30;;
53871;SDS011;39787;53.174;5.798;2023-07-02T03:48:36;17.90;;;7.13;;
53871;SDS011;39787;53.174;5.798;2023-07-02T03:49:37;18.43;;;7.03;;
53871;SDS011;39787;53.174;5.798;2023-07-02T03:50:37;24.70;;;7.17;;
53871;SDS011;39787;53.174;5.798;2023-07-02T03:51:38;25.90;;;7.13;;
53871;SDS011;39787;53.174;5.798;2023-07-02T03:52:38;21.70;;;7.20;;
53871;SDS011;39787;53.174;5.798;2023-07-02T03:53:39;34.23;;;7.87;;
53871;SDS011;39787;53.174;5.798;2023-07-02T03:54:39;19.63;;;6.43;;
53871;SDS011;39787;53.174;5.798;2023-07-02T03:55:40;19.03;;;7.80;;
53871;SDS011;39787;53.174;5.798;2023-07-02T03:56:40;23.03;;;7.40;;
53871;SDS011;39787;53.174;5.798;2023-07-02T03:57:41;25.83;;;7.47;;
53871;SDS011;39787;53.174;5.798;2023-07-02T03:58:41;26.47;;;8.20;;
53871;SDS011;39787;53.174;5.798;2023-07-02T03:59:42;23.30;;;7.20;;
53871;SDS011;39787;53.174;5.798;2023-07-02T04:00:42;27.27;;;8.23;;
53871;SDS011;39787;53.174;5.798;2023-07-02T04:01:43;23.53;;;6.57;;
53871;SDS011;39787;53.174;5.798;2023-07-02T04:02:43;25.70;;;7.40;;
53871;SDS011;39787;53.174;5.798;2023-07-02T04:03:50;17.13;;;6.10;;
53871;SDS011;39787;53.174;5.798;2023-07-02T04:04:52;18.70;;;6.00;;
53871;SDS011;39787;53.174;5.798;2023-07-02T04:05:52;25.03;;;7.13;;
53871;SDS011;39787;53.174;5.798;2023-07-02T04:06:53;27.33;;;6.97;;
53871;SDS011;39787;53.174;5.798;2023-07-02T04:07:53;22.43;;;6.50;;
53871;SDS011;39787;53.174;5.798;2023-07-02T04:08:54;17.77;;;6.13;;
53871;SDS011;39787;53.174;5.798;2023-07-02T04:09:54;28.83;;;7.00;;
53871;SDS011;39787;53.174;5.798;2023-07-02T04:10:55;19.37;;;6.53;;
53871;SDS011;39787;53.174;5.798;2023-07-02T04:11:55;24.47;;;7.23;;
53871;SDS011;39787;53.174;5.798;2023-07-02T04:12:56;18.00;;;5.67;;
53871;SDS011;39787;53.174;5.798;2023-07-02T04:13:56;27.70;;;6.67;;
53871;SDS011;39787;53.174;5.798;2023-07-02T04:14:57;23.53;;;6.43;;
53871;SDS011;39787;53.174;5.798;2023-07-02T04:15:57;25.17;;;7.13;;
53871;SDS011;39787;53.174;5.798;2023-07-02T04:16:58;19.43;;;5.97;;
53871;SDS011;39787;53.174;5.798;2023-07-02T04:17:58;21.03;;;6.37;;
53871;SDS011;39787;53.174;5.798;2023-07-02T04:18:59;20.00;;;6.43;;
53871;SDS011;39787;53.174;5.798;2023-07-02T04:20:00;24.97;;;6.83;;
53871;SDS011;39787;53.174;5.798;2023-07-02T04:21:01;25.50;;;6.53;;
53871;SDS011;39787;53.174;5.798;2023-07-02T04:22:02;17.92;;;5.65;;
53871;SDS011;39787;53.174;5.798;2023-07-02T04:23:03;17.23;;;5.67;;
53871;SDS011;39787;53.174;5.798;2023-07-02T04:24:03;17.97;;;5.47;;
53871;SDS011;39787;53.174;5.798;2023-07-02T04:25:04;18.25;;;6.03;;
53871;SDS011;39787;53.174;5.798;2023-07-02T04:26:05;13.95;;;5.07;;
53871;SDS011;39787;53.174;5.798;2023-07-02T04:27:05;14.37;;;5.93;;
53871;SDS011;39787;53.174;5.798;2023-07-02T04:28:06;23.53;;;7.03;;
53871;SDS011;39787;53.174;5.798;2023-07-02T04:29:06;24.80;;;6.97;;
53871;SDS011;39787;53.174;5.798;2023-07-02T04:30:07;17.27;;;5.47;;
53871;SDS011;39787;53.174;5.798;2023-07-02T04:31:08;17.85;;;5.50;;
53871;SDS011;39787;53.174;5.798;2023-07-02T04:32:08;15.23;;;5.90;;
53871;SDS011;39787;53.174;5.798;2023-07-02T04:33:09;13.63;;;5.27;;
53871;SDS011;39787;53.174;5.798;2023-07-02T04:34:09;22.50;;;6.30;;
53871;SDS011;39787;53.174;5.798;2023-07-02T04:35:10;19.63;;;6.50;;
53871;SDS011;39787;53.174;5.798;2023-07-02T04:36:10;16.73;;;5.90;;
53871;SDS011;39787;53.174;5.798;2023-07-02T04:37:11;17.17;;;6.40;;
53871;SDS011;39787;53.174;5.798;2023-07-02T04:38:11;22.83;;;6.73;;
53871;SDS011;39787;53.174;5.798;2023-07-02T04:39:12;29.97;;;8.20;;
53871;SDS011;39787;53.174;5.798;2023-07-02T04:40:12;22.93;;;7.23;;
53871;SDS011;39787;53.174;5.798;2023-07-02T04:41:13;20.40;;;7.10;;
53871;SDS011;39787;53.174;5.798;2023-07-02T04:42:13;20.63;;;6.83;;
53871;SDS011;39787;53.174;5.798;2023-07-02T04:43:14;23.03;;;7.17;;
53871;SDS011;39787;53.174;5.798;2023-07-02T04:44:14;20.60;;;6.50;;
53871;SDS011;39787;53.174;5.798;2023-07-02T04:45:15;22.83;;;6.67;;
53871;SDS011;39787;53.174;5.798;2023-07-02T04:46:15;21.90;;;7.00;;
53871;SDS011;39787;53.174;5.798;2023-07-02T04:47:16;20.90;;;6.40;;
53871;SDS011;39787;53.174;5.798;2023-07-02T04:48:16;15.23;;;5.97;;
53871;SDS011;39787;53.174;5.798;2023-07-02T04:49:17;20.17;;;6.50;;
53871;SDS011;39787;53.174;5.798;2023-07-02T04:50:18;20.03;;;5.80;;
53871;SDS011;39787;53.174;5.798;2023-07-02T04:51:19;19.88;;;6.20;;
53871;SDS011;39787;53.174;5.798;2023-07-02T04:52:20;20.92;;;6.07;;
53871;SDS011;39787;53.174;5.798;2023-07-02T04:53:20;15.40;;;5.57;;
53871;SDS011;39787;53.174;5.798;2023-07-02T04:54:21;16.43;;;5.17;;
53871;SDS011;39787;53.174;5.798;2023-07-02T04:55:22;22.80;;;6.82;;
53871;SDS011;39787;53.174;5.798;2023-07-02T04:56:22;15.40;;;5.10;;
53871;SDS011;39787;53.174;5.798;2023-07-02T04:57:23;18.30;;;5.43;;
53871;SDS011;39787;53.174;5.798;2023-07-02T04:58:23;18.80;;;6.10;;
53871;SDS011;39787;53.174;5.798;2023-07-02T04:59:24;15.50;;;5.37;;
53871;SDS011;39787;53.174;5.798;2023-07-02T05:00:24;19.63;;;5.78;;
53871;SDS011;39787;53.174;5.798;2023-07-02T05:01:27;17.50;;;5.87;;
53871;SDS011;39787;53.174;5.798;2023-07-02T05:02:27;19.58;;;5.75;;
53871;SDS011;39787;53.174;5.798;2023-07-02T05:03:28;25.07;;;6.77;;
53871;SDS011;39787;53.174;5.798;2023-07-02T05:04:28;20.70;;;6.57;;
53871;SDS011;39787;53.174;5.798;2023-07-02T05:05:29;20.60;;;6.43;;
53871;SDS011;39787;53.174;5.798;2023-07-02T05:06:30;20.17;;;6.88;;
53871;SDS011;39787;53.174;5.798;2023-07-02T05:07:30;27.53;;;7.20;;
53871;SDS011;39787;53.174;5.798;2023-07-02T05:08:31;21.20;;;6.47;;
53871;SDS011;39787;53.174;5.798;2023-07-02T05:09:31;21.97;;;6.37;;
53871;SDS011;39787;53.174;5.798;2023-07-02T05:10:32;24.57;;;6.73;;
53871;SDS011;39787;53.174;5.798;2023-07-02T05:11:32;15.40;;;6.37;;
53871;SDS011;39787;53.174;5.798;2023-07-02T05:12:33;25.10;;;6.83;;
53871;SDS011;39787;53.174;5.798;2023-07-02T05:13:33;20.13;;;6.67;;
53871;SDS011;39787;53.174;5.798;2023-07-02T05:14:34;25.17;;;8.10;;
53871;SDS011;39787;53.174;5.798;2023-07-02T05:15:34;23.97;;;7.33;;
53871;SDS011;39787;53.174;5.798;2023-07-02T05:16:35;26.83;;;6.60;;
53871;SDS011;39787;53.174;5.798;2023-07-02T05:17:35;19.47;;;6.67;;
53871;SDS011;39787;53.174;5.798;2023-07-02T05:18:36;20.33;;;6.70;;
53871;SDS011;39787;53.174;5.798;2023-07-02T05:19:36;19.13;;;6.53;;
53871;SDS011;39787;53.174;5.798;2023-07-02T05:20:36;20.57;;;6.23;;
53871;SDS011;39787;53.174;5.798;2023-07-02T05:21:37;21.97;;;7.47;;
53871;SDS011;39787;53.174;5.798;2023-07-02T05:22:37;24.63;;;6.77;;
53871;SDS011;39787;53.174;5.798;2023-07-02T05:23:38;22.33;;;6.57;;
53871;SDS011;39787;53.174;5.798;2023-07-02T05:24:38;22.13;;;6.17;;
53871;SDS011;39787;53.174;5.798;2023-07-02T05:25:39;23.57;;;7.37;;
53871;SDS011;39787;53.174;5.798;2023-07-02T05:26:39;24.43;;;6.97;;
53871;SDS011;39787;53.174;5.798;2023-07-02T05:27:40;21.20;;;6.87;;
53871;SDS011;39787;53.174;5.798;2023-07-02T05:28:40;19.90;;;6.47;;
53871;SDS011;39787;53.174;5.798;2023-07-02T05:29:41;21.50;;;6.83;;
53871;SDS011;39787;53.174;5.798;2023-07-02T05:30:42;21.63;;;6.00;;
53871;SDS011;39787;53.174;5.798;2023-07-02T05:31:43;21.17;;;6.33;;
53871;SDS011;39787;53.174;5.798;2023-07-02T05:32:43;23.80;;;6.40;;
53871;SDS011;39787;53.174;5.798;2023-07-02T05:33:44;21.10;;;6.17;;
53871;SDS011;39787;53.174;5.798;2023-07-02T05:34:45;23.93;;;6.47;;
53871;SDS011;39787;53.174;5.798;2023-07-02T05:35:45;16.73;;;6.23;;
53871;SDS011;39787;53.174;5.798;2023-07-02T05:36:45;16.33;;;5.33;;
53871;SDS011;39787;53.174;5.798;2023-07-02T05:37:46;19.47;;;6.10;;
53871;SDS011;39787;53.174;5.798;2023-07-02T05:38:46;20.73;;;6.47;;
53871;SDS011;39787;53.174;5.798;2023-07-02T05:39:47;24.73;;;6.30;;
53871;SDS011;39787;53.174;5.798;2023-07-02T05:40:47;20.43;;;6.77;;
53871;SDS011;39787;53.174;5.798;2023-07-02T05:41:48;23.17;;;5.80;;
53871;SDS011;39787;53.174;5.798;2023-07-02T05:42:48;22.77;;;5.93;;
53871;SDS011;39787;53.174;5.798;2023-07-02T05:43:49;19.50;;;7.10;;
53871;SDS011;39787;53.174;5.798;2023-07-02T05:44:50;20.70;;;6.10;;
53871;SDS011;39787;53.174;5.798;2023-07-02T05:45:50;19.48;;;6.57;;
53871;SDS011;39787;53.174;5.798;2023-07-02T05:46:51;18.85;;;7.15;;
53871;SDS011;39787;53.174;5.798;2023-07-02T05:47:51;20.93;;;5.93;;
53871;SDS011;39787;53.174;5.798;2023-07-02T05:48:52;15.67;;;5.10;;
53871;SDS011;39787;53.174;5.798;2023-07-02T05:49:52;21.90;;;6.10;;
53871;SDS011;39787;53.174;5.798;2023-07-02T05:50:53;17.80;;;5.47;;
53871;SDS011;39787;53.174;5.798;2023-07-02T05:51:54;15.25;;;5.97;;
53871;SDS011;39787;53.174;5.798;2023-07-02T05:52:55;16.80;;;4.90;;
53871;SDS011;39787;53.174;5.798;2023-07-02T05:53:55;15.60;;;4.63;;
53871;SDS011;39787;53.174;5.798;2023-07-02T05:54:56;17.00;;;4.97;;
53871;SDS011;39787;53.174;5.798;2023-07-02T05:55:56;15.23;;;4.20;;
53871;SDS011;39787;53.174;5.798;2023-07-02T05:56:57;11.57;;;3.60;;
53871;SDS011;39787;53.174;5.798;2023-07-02T05:57:57;18.80;;;4.57;;
53871;SDS011;39787;53.174;5.798;2023-07-02T05:58:58;15.27;;;4.17;;
53871;SDS011;39787;53.174;5.798;2023-07-02T05:59:58;13.87;;;4.20;;
53871;SDS011;39787;53.174;5.798;2023-07-02T06:00:59;13.10;;;4.67;;
53871;SDS011;39787;53.174;5.798;2023-07-02T06:01:59;12.33;;;4.30;;